createdAt,value
2022-09-04T00:00:03.589Z,99536.84
2022-09-04T00:03:03.290Z,99543.34
2022-09-04T00:05:49.548Z,99542.56
2022-09-04T00:08:15.894Z,99541.41
2022-09-04T00:11:20.166Z,99554.78
2022-09-04T00:13:55.209Z,99553.34
2022-09-04T00:16:24.521Z,99549.94
2022-09-04T00:19:17.866Z,99544.59
2022-09-04T00:22:11.001Z,99555.41
2022-09-04T00:24:42.151Z,99558.75
2022-09-04T00:27:13.871Z,99554.53
2022-09-04T00:29:54.476Z,99559.72
2022-09-04T00:32:38.496Z,99562.88
2022-09-04T00:35:32.446Z,99559.34
2022-09-04T00:38:15.484Z,99558.34
2022-09-04T00:41:15.844Z,99558.47
2022-09-04T00:44:11.954Z,99571.44
2022-09-04T00:46:56.153Z,99575.44
2022-09-04T00:49:46.879Z,99578.28
2022-09-04T00:52:41.269Z,99569.84
2022-09-04T00:55:38.903Z,99575.72
2022-09-04T00:58:49.592Z,99579.16
2022-09-04T01:01:23.719Z,99579.09
2022-09-04T01:04:12.332Z,99588.13
2022-09-04T01:07:03.600Z,99594.84
2022-09-04T01:10:01.066Z,99595.13
2022-09-04T01:12:53.355Z,99601.16
2022-09-04T01:15:42.885Z,99607.53
2022-09-04T01:18:10.171Z,99605.25
2022-09-04T01:21:01.200Z,99610.72
2022-09-04T01:23:48.939Z,99614.81
2022-09-04T01:26:21.434Z,99607.75
2022-09-04T01:28:58.819Z,99607.06
2022-09-04T01:32:02.873Z,99605.47
2022-09-04T01:34:45.150Z,99595.13
2022-09-04T01:37:30.224Z,99597.63
2022-09-04T01:40:36.211Z,99602.38
2022-09-04T01:43:07.716Z,99608.44
2022-09-04T01:45:55.477Z,99606.63
2022-09-04T01:48:34.909Z,99612.00
2022-09-04T01:51:15.214Z,99613.56
2022-09-04T01:53:46.152Z,99610.50
2022-09-04T01:56:21.720Z,99618.19
2022-09-04T01:58:56.815Z,99615.22
2022-09-04T02:01:47.652Z,99610.78
2022-09-04T02:04:28.235Z,99611.53
2022-09-04T02:07:13.386Z,99610.72
2022-09-04T02:09:54.016Z,99604.81
2022-09-04T02:12:35.337Z,99621.38
2022-09-04T02:15:13.086Z,99603.25
2022-09-04T02:18:20.679Z,99609.88
2022-09-04T02:20:58.736Z,99602.78
2022-09-04T02:24:02.476Z,99618.41
2022-09-04T02:26:55.055Z,99617.66
2022-09-04T02:29:36.472Z,99620.44
2022-09-04T02:32:20.375Z,99629.75
2022-09-04T02:35:02.724Z,99619.09
2022-09-04T02:37:32.891Z,99632.31
2022-09-04T02:40:11.893Z,99635.59
2022-09-04T02:43:06.053Z,99625.50
2022-09-04T02:46:02.129Z,99637.81
2022-09-04T02:48:40.258Z,99641.28
2022-09-04T02:51:45.556Z,99640.53
2022-09-04T02:54:38.642Z,99643.72
2022-09-04T02:57:43.850Z,99640.72
2022-09-04T03:00:21.636Z,99635.38
2022-09-04T03:03:15.794Z,99648.91
2022-09-04T03:06:18.377Z,99648.06
2022-09-04T03:09:01.869Z,99649.53
2022-09-04T03:12:05.469Z,99645.25
2022-09-04T03:14:41.058Z,99647.56
2022-09-04T03:17:33.855Z,99657.03
2022-09-04T03:20:09.860Z,99656.84
2022-09-04T03:22:40.781Z,99652.88
2022-09-04T03:25:50.741Z,99657.19
2022-09-04T03:28:43.425Z,99656.97
2022-09-04T03:31:40.528Z,99654.28
2022-09-04T03:34:34.066Z,99661.75
2022-09-04T03:37:15.708Z,99667.97
2022-09-04T03:40:05.689Z,99668.44
2022-09-04T03:42:47.232Z,99661.44
2022-09-04T03:45:32.476Z,99668.94
2022-09-04T03:48:37.046Z,99654.03
2022-09-04T03:51:10.856Z,99652.94
2022-09-04T03:53:43.529Z,99669.00
2022-09-04T03:56:28.492Z,99672.16
2022-09-04T03:59:03.275Z,99667.00
2022-09-04T04:01:47.736Z,99664.75
2022-09-04T04:04:52.780Z,99674.09
2022-09-04T04:07:21.920Z,99676.38
2022-09-04T04:10:03.334Z,99676.69
2022-09-04T04:13:14.878Z,99675.06
2022-09-04T04:15:46.296Z,99677.03
2022-09-04T04:18:19.460Z,99672.94
2022-09-04T04:21:19.732Z,99673.94
2022-09-04T04:23:57.555Z,99684.53
2022-09-04T04:26:52.898Z,99685.31
2022-09-04T04:29:43.130Z,99687.16
2022-09-04T04:32:28.426Z,99683.28
2022-09-04T04:35:12.586Z,99692.09
2022-09-04T04:38:18.152Z,99694.44
2022-09-04T04:41:16.035Z,99685.47
2022-09-04T04:43:55.395Z,99706.66
2022-09-04T04:47:01.812Z,99699.50
2022-09-04T04:49:58.554Z,99713.97
2022-09-04T04:52:58.282Z,99715.69
2022-09-04T04:55:40.031Z,99719.94
2022-09-04T04:58:07.752Z,99725.34
2022-09-04T05:01:01.817Z,99729.09
2022-09-04T05:03:52.086Z,99730.19
2022-09-04T05:06:30.712Z,99735.09
2022-09-04T05:09:32.407Z,99737.75
2022-09-04T05:12:11.066Z,99738.38
2022-09-04T05:15:13.710Z,99737.47
2022-09-04T05:17:49.154Z,99736.06
2022-09-04T05:20:49.684Z,99736.09
2022-09-04T05:23:38.845Z,99736.53
2022-09-04T05:26:14.102Z,99751.91
2022-09-04T05:28:45.393Z,99748.69
2022-09-04T05:31:37.831Z,99755.06
2022-09-04T05:34:07.655Z,99760.69
2022-09-04T05:37:07.480Z,99760.66
2022-09-04T05:40:03.013Z,99766.44
2022-09-04T05:42:38.291Z,99770.00
2022-09-04T05:45:29.328Z,99768.16
2022-09-04T05:48:17.706Z,99767.88
2022-09-04T05:50:53.176Z,99780.59
2022-09-04T05:53:40.828Z,99785.81
2022-09-04T05:56:30.413Z,99783.78
2022-09-04T05:59:27.890Z,99789.81
2022-09-04T06:02:29.093Z,99791.88
2022-09-04T06:05:06.512Z,99788.03
2022-09-04T06:07:47.150Z,99787.00
2022-09-04T06:10:19.882Z,99791.50
2022-09-04T06:13:06.306Z,99801.84
2022-09-04T06:15:40.268Z,99806.03
2022-09-04T06:18:33.617Z,99795.72
2022-09-04T06:21:13.432Z,99807.47
2022-09-04T06:24:07.804Z,99813.81
2022-09-04T06:27:13.350Z,99823.03
2022-09-04T06:30:03.333Z,99810.50
2022-09-04T06:32:42.022Z,99817.06
2022-09-04T06:35:27.396Z,99823.66
2022-09-04T06:38:12.676Z,99827.31
2022-09-04T06:41:08.616Z,99828.75
2022-09-04T06:44:06.001Z,99836.28
2022-09-04T06:46:45.402Z,99832.97
2022-09-04T06:49:36.009Z,99836.66
2022-09-04T06:52:07.477Z,99843.22
2022-09-04T06:55:00.228Z,99842.22
2022-09-04T06:57:35.873Z,99835.53
2022-09-04T07:00:14.684Z,99844.59
2022-09-04T07:02:56.447Z,99844.56
2022-09-04T07:05:43.249Z,99846.09
2022-09-04T07:08:25.770Z,99846.38
2022-09-04T07:11:17.013Z,99844.91
2022-09-04T07:13:49.430Z,99857.59
2022-09-04T07:16:43.417Z,99855.84
2022-09-04T07:19:24.829Z,99861.97
2022-09-04T07:22:42.558Z,99861.06
2022-09-04T07:25:26.210Z,99858.16
2022-09-04T07:27:55.887Z,99862.56
2022-09-04T07:30:25.867Z,99863.72
2022-09-04T07:32:58.530Z,99867.09
2022-09-04T07:35:47.984Z,99865.63
2022-09-04T07:38:50.578Z,99867.78
2022-09-04T07:41:39.641Z,99864.41
2022-09-04T07:44:37.085Z,99868.56
2022-09-04T07:47:27.486Z,99874.88
2022-09-04T07:50:18.630Z,99876.81
2022-09-04T07:53:11.369Z,99872.44
2022-09-04T07:55:41.534Z,99878.59
2022-09-04T07:58:31.438Z,99880.75
2022-09-04T08:01:29.726Z,99882.63
2022-09-04T08:04:22.523Z,99889.88
2022-09-04T08:07:01.102Z,99886.34
2022-09-04T08:10:01.296Z,99890.34
2022-09-04T08:12:42.865Z,99899.66
2022-09-04T08:15:19.942Z,99902.44
2022-09-04T08:18:10.412Z,99908.16
2022-09-04T08:21:10.096Z,99912.91
2022-09-04T08:24:14.294Z,99913.66
2022-09-04T08:26:46.637Z,99913.16
2022-09-04T08:29:34.808Z,99913.84
2022-09-04T08:32:09.556Z,99911.41
2022-09-04T08:34:58.613Z,99909.91
2022-09-04T08:37:28.970Z,99905.75
2022-09-04T08:40:29.462Z,99903.75
2022-09-04T08:43:03.992Z,99904.44
2022-09-04T08:46:14.565Z,99913.16
2022-09-04T08:49:11.913Z,99915.16
2022-09-04T08:51:58.941Z,99910.13
2022-09-04T08:54:57.654Z,99919.47
2022-09-04T08:57:53.919Z,99916.44
2022-09-04T09:00:22.369Z,99908.53
2022-09-04T09:03:24.072Z,99910.00
2022-09-04T09:06:06.728Z,99910.28
2022-09-04T09:09:12.214Z,99912.56
2022-09-04T09:12:09.103Z,99909.16
2022-09-04T09:15:03.194Z,99910.06
2022-09-04T09:17:38.984Z,99903.78
2022-09-04T09:20:24.300Z,99904.22
2022-09-04T09:23:19.831Z,99908.81
2022-09-04T09:25:56.090Z,99911.06
2022-09-04T09:28:59.085Z,99905.25
2022-09-04T09:31:44.220Z,99905.22
2022-09-04T09:34:29.334Z,99900.88
2022-09-04T09:37:37.781Z,99907.91
2022-09-04T09:40:36.836Z,99904.34
2022-09-04T09:43:12.289Z,99888.84
2022-09-04T09:45:43.791Z,99895.91
2022-09-04T09:48:36.014Z,99897.56
2022-09-04T09:51:44.420Z,99895.31
2022-09-04T09:54:29.109Z,99898.69
2022-09-04T09:57:07.365Z,99889.97
2022-09-04T10:00:06.832Z,99885.38
2022-09-04T10:03:26.527Z,99892.75
2022-09-04T10:06:16.553Z,99885.81
2022-09-04T10:08:58.685Z,99894.22
2022-09-04T10:11:40.438Z,99881.50
2022-09-04T10:14:50.562Z,99887.44
2022-09-04T10:17:45.117Z,99891.06
2022-09-04T10:20:42.006Z,99890.34
2022-09-04T10:23:48.113Z,99888.38
2022-09-04T10:26:17.892Z,99878.66
2022-09-04T10:29:18.557Z,99874.59
2022-09-04T10:31:52.548Z,99875.50
2022-09-04T10:35:09.757Z,99875.31
2022-09-04T10:38:09.823Z,99866.41
2022-09-04T10:40:52.855Z,99870.56
2022-09-04T10:43:37.676Z,99864.97
2022-09-04T10:46:28.398Z,99869.38
2022-09-04T10:49:34.181Z,99869.81
2022-09-04T10:52:06.844Z,99861.09
2022-09-04T10:54:44.147Z,99863.56
2022-09-04T10:57:33.012Z,99866.25
2022-09-04T11:00:20.380Z,99867.50
2022-09-04T11:03:24.604Z,99854.16
2022-09-04T11:06:08.666Z,99866.00
2022-09-04T11:09:04.416Z,99854.38
2022-09-04T11:11:59.857Z,99862.09
2022-09-04T11:14:36.974Z,99854.81
2022-09-04T11:17:25.392Z,99861.03
2022-09-04T11:20:18.363Z,99852.50
2022-09-04T11:23:05.023Z,99854.63
2022-09-04T11:26:08.760Z,99853.59
2022-09-04T11:28:47.335Z,99857.28
2022-09-04T11:31:49.372Z,99860.66
2022-09-04T11:34:40.647Z,99861.09
2022-09-04T11:37:48.561Z,99849.34
2022-09-04T11:40:46.815Z,99853.84
2022-09-04T11:43:37.387Z,99853.13
2022-09-04T11:46:34.720Z,99858.66
2022-09-04T11:49:31.061Z,99863.59
2022-09-04T11:52:08.988Z,99866.03
2022-09-04T11:54:56.599Z,99867.69
2022-09-04T11:57:35.737Z,99862.25
2022-09-04T12:00:12.391Z,99863.03
2022-09-04T12:02:57.100Z,99859.25
2022-09-04T12:05:45.662Z,99869.16
2022-09-04T12:08:41.398Z,99869.84
2022-09-04T12:11:34.689Z,99866.09
2022-09-04T12:14:04.038Z,99869.75
2022-09-04T12:17:05.401Z,99869.97
2022-09-04T12:19:57.394Z,99869.75
2022-09-04T12:22:42.097Z,99872.66
2022-09-04T12:25:14.564Z,99873.69
2022-09-04T12:28:06.019Z,99871.38
2022-09-04T12:30:50.629Z,99864.72
2022-09-04T12:33:42.744Z,99868.81
2022-09-04T12:36:18.166Z,99870.50
2022-09-04T12:39:22.270Z,99870.88
2022-09-04T12:41:57.517Z,99872.53
2022-09-04T12:44:33.352Z,99870.22
2022-09-04T12:47:35.182Z,99881.66
2022-09-04T12:50:29.626Z,99867.16
2022-09-04T12:53:26.027Z,99876.91
2022-09-04T12:56:06.250Z,99875.25
2022-09-04T12:59:23.907Z,99874.00
2022-09-04T13:02:24.146Z,99870.06
2022-09-04T13:05:28.717Z,99871.69
2022-09-04T13:08:01.364Z,99871.53
2022-09-04T13:10:41.200Z,99880.88
2022-09-04T13:13:13.547Z,99869.75
2022-09-04T13:15:48.938Z,99878.31
2022-09-04T13:18:27.507Z,99881.88
2022-09-04T13:21:05.358Z,99883.53
2022-09-04T13:23:47.724Z,99877.78
2022-09-04T13:26:29.683Z,99879.16
2022-09-04T13:29:19.522Z,99878.59
2022-09-04T13:32:13.904Z,99881.91
2022-09-04T13:34:52.761Z,99868.34
2022-09-04T13:37:29.151Z,99873.00
2022-09-04T13:40:24.226Z,99873.88
2022-09-04T13:43:15.512Z,99873.69
2022-09-04T13:45:53.822Z,99865.38
2022-09-04T13:48:37.431Z,99871.81
2022-09-04T13:51:29.624Z,99865.75
2022-09-04T13:54:05.091Z,99866.75
2022-09-04T13:56:39.640Z,99861.31
2022-09-04T13:59:10.574Z,99862.31
2022-09-04T14:01:45.988Z,99852.09
2022-09-04T14:04:17.456Z,99868.63
2022-09-04T14:06:44.757Z,99880.25
2022-09-04T14:09:11.459Z,99867.75
2022-09-04T14:11:45.122Z,99870.41
2022-09-04T14:14:19.860Z,99872.03
2022-09-04T14:16:49.371Z,99870.13
2022-09-04T14:19:49.660Z,99872.19
2022-09-04T14:22:23.890Z,99867.78
2022-09-04T14:25:06.394Z,99875.44
2022-09-04T14:28:11.193Z,99872.50
2022-09-04T14:33:35.767Z,99872.03
2022-09-04T14:36:33.950Z,99868.31
2022-09-04T14:39:20.538Z,99874.75
2022-09-04T14:42:19.711Z,99870.19
2022-09-04T14:45:09.437Z,99878.28
2022-09-04T14:48:06.317Z,99873.91
2022-09-04T14:50:44.424Z,99876.41
2022-09-04T14:53:18.673Z,99869.16
2022-09-04T14:56:07.665Z,99868.31
2022-09-04T14:58:38.862Z,99858.19
2022-09-04T15:01:17.042Z,99864.41
2022-09-04T15:04:01.715Z,99859.22
2022-09-04T15:07:10.413Z,99860.06
2022-09-04T15:09:40.953Z,99858.38
2022-09-04T15:12:32.360Z,99860.06
2022-09-04T15:15:32.734Z,99860.53
2022-09-04T15:18:23.368Z,99863.47
2022-09-04T15:21:01.957Z,99863.88
2022-09-04T15:23:45.690Z,99865.31
2022-09-04T15:26:24.789Z,99870.50
2022-09-04T15:29:02.371Z,99868.44
2022-09-04T15:31:35.367Z,99864.94
2022-09-04T15:34:08.664Z,99863.69
2022-09-04T15:36:37.732Z,99866.22
2022-09-04T15:39:18.395Z,99869.53
2022-09-04T15:41:49.823Z,99869.34
2022-09-04T15:44:34.969Z,99867.28
2022-09-04T15:47:19.823Z,99869.78
2022-09-04T15:49:54.613Z,99866.47
2022-09-04T15:52:37.609Z,99873.53
2022-09-04T15:55:07.753Z,99864.41
2022-09-04T15:57:55.967Z,99866.28
2022-09-04T16:00:24.878Z,99872.72
2022-09-04T16:03:08.908Z,99866.03
2022-09-04T16:05:49.130Z,99861.03
2022-09-04T16:08:33.230Z,99865.19
2022-09-04T16:11:16.559Z,99864.59
2022-09-04T16:13:58.115Z,99862.91
2022-09-04T16:16:33.339Z,99869.97
2022-09-04T16:19:14.086Z,99864.97
2022-09-04T16:21:46.580Z,99871.00
2022-09-04T16:24:51.777Z,99874.53
2022-09-04T16:27:22.154Z,99869.34
2022-09-04T16:29:55.274Z,99876.78
2022-09-04T16:32:24.316Z,99870.97
2022-09-04T16:34:55.294Z,99866.59
2022-09-04T16:37:42.308Z,99873.03
2022-09-04T16:40:29.410Z,99861.41
2022-09-04T16:43:11.978Z,99872.19
2022-09-04T16:46:15.425Z,99868.28
2022-09-04T16:48:54.064Z,99866.22
2022-09-04T16:51:40.207Z,99868.06
2022-09-04T16:54:17.270Z,99868.06
2022-09-04T16:56:50.699Z,99867.25
2022-09-04T16:59:24.865Z,99865.13
2022-09-04T17:01:59.772Z,99867.59
2022-09-04T17:04:47.573Z,99868.81
2022-09-04T17:07:21.414Z,99855.09
2022-09-04T17:10:05.881Z,99856.94
2022-09-04T17:12:56.045Z,99856.28
2022-09-04T17:15:53.249Z,99852.56
2022-09-04T17:18:22.794Z,99862.13
2022-09-04T17:25:05.710Z,99866.03
2022-09-04T17:28:55.486Z,99855.81
2022-09-04T17:29:14.605Z,99862.00
2022-09-04T17:29:46.278Z,99858.22
2022-09-04T17:38:05.105Z,99865.22
2022-09-04T17:40:32.917Z,99866.03
2022-09-04T17:40:46.824Z,99860.84
2022-09-04T17:41:54.000Z,99862.69
2022-09-04T17:44:38.528Z,99861.88
2022-09-04T17:47:19.393Z,99868.50
2022-09-04T17:49:49.425Z,99868.88
2022-09-04T17:52:57.049Z,99864.09
2022-09-04T17:55:24.438Z,99862.78
2022-09-04T17:58:22.014Z,99861.13
2022-09-04T18:01:14.473Z,99861.50
2022-09-04T18:04:24.863Z,99876.19
2022-09-04T18:06:58.387Z,99868.28
2022-09-04T18:09:39.822Z,99873.66
2022-09-04T18:12:24.966Z,99882.03
2022-09-04T18:15:12.933Z,99883.44
2022-09-04T18:17:56.535Z,99890.63
2022-09-04T18:20:38.249Z,99888.03
2022-09-04T18:23:31.304Z,99899.53
2022-09-04T18:26:07.209Z,99901.13
2022-09-04T18:28:42.406Z,99903.38
2022-09-04T18:37:10.920Z,99900.63
2022-09-04T18:37:20.594Z,99908.13
2022-09-04T18:37:44.165Z,99907.88
2022-09-04T18:43:29.797Z,99909.28
2022-09-04T18:50:25.800Z,99920.75
2022-09-04T18:50:35.751Z,99927.50
2022-09-04T18:50:42.919Z,99921.31
2022-09-04T18:52:22.186Z,99916.97
2022-09-04T18:54:54.096Z,99912.16
2022-09-04T18:57:32.236Z,99918.81
2022-09-04T19:00:09.463Z,99925.38
2022-09-04T19:02:53.832Z,99930.31
2022-09-04T19:05:21.957Z,99929.75
2022-09-04T19:07:55.954Z,99932.78
2022-09-04T19:10:29.998Z,99939.50
2022-09-04T19:13:14.068Z,99942.94
2022-09-04T19:16:16.029Z,99943.09
2022-09-04T19:19:03.932Z,99938.47
2022-09-04T19:21:57.643Z,99944.09
2022-09-04T19:24:35.732Z,99941.16
2022-09-04T19:27:26.838Z,99944.66
2022-09-04T19:30:19.806Z,99948.06
2022-09-04T19:32:59.652Z,99947.78
2022-09-04T19:35:37.096Z,99951.16
2022-09-04T19:41:32.791Z,99954.81
2022-09-04T19:46:02.227Z,99956.91
2022-09-04T19:46:03.142Z,99951.66
2022-09-04T19:47:27.449Z,99953.38
2022-09-04T19:53:19.745Z,99954.75
2022-09-04T19:53:35.615Z,99954.50
2022-09-04T19:55:55.690Z,99954.63
2022-09-04T19:58:37.904Z,99953.31
2022-09-04T20:01:14.217Z,99956.91
2022-09-04T20:03:52.993Z,99962.44
2022-09-04T20:06:26.377Z,99960.41
2022-09-04T20:09:06.266Z,99961.59
2022-09-04T20:11:38.685Z,99963.94
2022-09-04T20:14:14.414Z,99961.41
2022-09-04T20:16:53.999Z,99959.75
2022-09-04T20:19:38.699Z,99966.66
2022-09-04T20:22:14.658Z,99967.38
2022-09-04T20:25:01.553Z,99963.00
2022-09-04T20:27:41.639Z,99962.00
2022-09-04T20:30:12.549Z,99962.84
2022-09-04T20:32:56.567Z,99964.00
2022-09-04T20:35:39.290Z,99966.00
2022-09-04T20:38:23.908Z,99966.22
2022-09-04T20:41:29.316Z,99969.38
2022-09-04T20:44:28.193Z,99967.56
2022-09-04T20:52:44.255Z,99975.47
2022-09-04T20:52:55.458Z,99968.75
2022-09-04T20:53:20.183Z,99978.16
2022-09-04T20:56:17.137Z,99977.00
2022-09-04T21:03:06.622Z,99983.09
2022-09-04T21:03:22.399Z,99985.16
2022-09-04T21:05:21.548Z,99982.97
2022-09-04T21:08:00.374Z,99991.06
2022-09-04T21:10:37.544Z,99992.41
2022-09-04T21:13:29.904Z,99989.03
2022-09-04T21:16:05.433Z,99987.41
2022-09-04T21:19:28.176Z,99998.47
2022-09-04T21:22:32.903Z,99999.16
2022-09-04T21:25:08.218Z,100000.16
2022-09-04T21:28:12.273Z,99997.47
2022-09-04T21:31:23.543Z,100004.53
2022-09-04T21:34:43.315Z,99993.50
2022-09-04T21:37:32.860Z,100003.66
2022-09-04T21:40:42.245Z,100005.03
2022-09-04T21:43:19.440Z,100009.56
2022-09-04T21:46:07.813Z,100011.22
2022-09-04T21:49:08.091Z,100007.38
2022-09-04T21:51:43.934Z,100007.22
2022-09-04T21:54:38.423Z,100019.59
2022-09-04T22:02:31.849Z,100018.25
2022-09-04T22:02:37.796Z,100021.75
2022-09-04T22:04:19.614Z,100027.91
2022-09-04T22:08:33.183Z,100029.41
2022-09-04T22:13:27.692Z,100023.69
2022-09-04T22:13:40.328Z,100029.47
2022-09-04T22:16:17.959Z,100032.69
2022-09-04T22:19:16.407Z,100033.41
2022-09-04T22:22:28.564Z,100029.78
2022-09-04T22:25:12.589Z,100029.78
2022-09-04T22:28:14.004Z,100030.78
2022-09-04T22:30:40.288Z,100031.75
2022-09-04T22:33:18.736Z,100035.78
2022-09-04T22:35:53.933Z,100039.09
2022-09-04T22:38:32.452Z,100041.75
2022-09-04T22:41:23.577Z,100038.75
2022-09-04T22:44:09.338Z,100041.44
2022-09-04T22:47:20.152Z,100039.84
2022-09-04T22:50:10.466Z,100035.69
2022-09-04T22:52:41.753Z,100030.59
2022-09-04T22:56:00.703Z,100044.97
2022-09-04T22:58:44.116Z,100047.00
2022-09-04T23:01:45.570Z,100047.31
2022-09-04T23:04:35.763Z,100046.78
2022-09-04T23:09:54.069Z,100053.69
2022-09-04T23:13:54.634Z,100056.84
2022-09-04T23:13:57.504Z,100050.94
2022-09-04T23:16:27.846Z,100052.34
2022-09-04T23:23:22.606Z,100054.38
2022-09-04T23:26:34.384Z,100054.91
2022-09-04T23:26:45.515Z,100062.44
2022-09-04T23:28:27.324Z,100068.75
2022-09-04T23:31:08.640Z,100067.06
2022-09-04T23:34:11.177Z,100065.28
2022-09-04T23:36:44.518Z,100071.00
2022-09-04T23:39:36.094Z,100066.94
2022-09-04T23:42:11.544Z,100064.28
2022-09-04T23:45:04.961Z,100054.81
2022-09-04T23:47:47.170Z,100059.81
2022-09-04T23:50:37.370Z,100065.44
2022-09-04T23:53:15.866Z,100060.31
2022-09-04T23:55:56.097Z,100058.34
2022-09-04T23:58:51.845Z,100062.84
